createdAt,value
2023-04-23T00:01:19.230Z,7.65
2023-04-23T00:03:46.583Z,5.93
2023-04-23T00:06:14.513Z,6.47
2023-04-23T00:08:42.111Z,10.50
2023-04-23T00:11:10.187Z,6.70
2023-04-23T00:13:37.848Z,6.60
2023-04-23T00:16:05.687Z,6.45
2023-04-23T00:18:32.696Z,8.52
2023-04-23T00:20:59.905Z,6.32
2023-04-23T00:23:28.393Z,5.97
2023-04-23T00:25:55.638Z,6.05
2023-04-23T00:28:22.573Z,4.90
2023-04-23T00:30:49.946Z,6.68
2023-04-23T00:33:17.156Z,6.60
2023-04-23T00:35:44.434Z,9.43
2023-04-23T00:38:11.408Z,7.75
2023-04-23T00:40:38.643Z,5.88
2023-04-23T00:43:05.983Z,6.90
2023-04-23T00:45:33.964Z,5.93
2023-04-23T00:48:01.234Z,5.90
2023-04-23T00:50:28.528Z,6.72
2023-04-23T00:52:55.386Z,6.75
2023-04-23T00:55:22.762Z,5.82
2023-04-23T00:57:50.693Z,7.75
2023-04-23T01:00:18.842Z,4.35
2023-04-23T01:02:46.079Z,5.65
2023-04-23T01:05:14.558Z,5.70
2023-04-23T01:07:44.154Z,6.20
2023-04-23T01:10:12.242Z,6.55
2023-04-23T01:12:39.348Z,6.47
2023-04-23T01:15:09.000Z,3.63
2023-04-23T01:17:36.056Z,5.28
2023-04-23T01:20:06.373Z,4.28
2023-04-23T01:22:36.379Z,4.40
2023-04-23T01:25:04.787Z,3.35
2023-04-23T01:27:32.818Z,4.82
2023-04-23T01:30:01.729Z,4.55
2023-04-23T01:32:28.831Z,5.60
2023-04-23T01:34:57.027Z,3.60
2023-04-23T01:37:24.181Z,5.85
2023-04-23T01:39:51.978Z,4.07
2023-04-23T01:42:18.939Z,3.13
2023-04-23T01:44:46.315Z,3.28
2023-04-23T01:47:13.259Z,3.85
2023-04-23T01:49:40.760Z,6.85
2023-04-23T01:52:08.299Z,5.38
2023-04-23T01:54:35.726Z,7.00
2023-04-23T01:57:03.058Z,6.95
2023-04-23T01:59:30.294Z,15.30
2023-04-23T02:01:57.231Z,30.10
2023-04-23T02:04:24.857Z,173.75
2023-04-23T02:06:52.061Z,77.88
2023-04-23T02:09:19.319Z,84.40
2023-04-23T02:11:46.962Z,49.63
2023-04-23T02:14:14.467Z,6.88
2023-04-23T02:16:41.633Z,4.78
2023-04-23T02:19:08.947Z,7.18
2023-04-23T02:21:35.880Z,15.68
2023-04-23T02:24:05.307Z,12.25
2023-04-23T02:26:32.307Z,43.30
2023-04-23T02:28:59.780Z,26.92
2023-04-23T02:31:26.696Z,9.05
2023-04-23T02:33:55.433Z,40.83
2023-04-23T02:36:22.440Z,76.78
2023-04-23T02:38:51.226Z,62.65
2023-04-23T02:41:18.266Z,40.45
2023-04-23T02:43:45.545Z,25.83
2023-04-23T02:46:12.584Z,19.88
2023-04-23T02:48:41.683Z,9.48
2023-04-23T02:51:10.443Z,9.27
2023-04-23T02:53:37.738Z,10.98
2023-04-23T02:56:04.931Z,19.65
2023-04-23T02:58:32.530Z,9.27
2023-04-23T03:01:01.456Z,26.02
2023-04-23T03:03:32.157Z,15.13
2023-04-23T03:06:02.304Z,6.03
2023-04-23T03:08:29.732Z,4.57
2023-04-23T03:10:56.705Z,5.57
2023-04-23T03:13:25.940Z,5.57
2023-04-23T03:15:54.127Z,5.80
2023-04-23T03:18:21.366Z,3.63
2023-04-23T03:20:51.563Z,5.45
2023-04-23T03:23:19.378Z,4.30
2023-04-23T03:25:47.759Z,5.82
2023-04-23T03:28:14.961Z,3.97
2023-04-23T03:30:42.515Z,10.88
2023-04-23T03:33:10.278Z,16.85
2023-04-23T03:35:37.726Z,10.77
2023-04-23T03:38:09.771Z,4.68
2023-04-23T03:40:37.265Z,4.90
2023-04-23T03:43:07.102Z,5.53
2023-04-23T03:46:03.350Z,6.22
2023-04-23T03:48:33.974Z,5.43
2023-04-23T03:51:05.244Z,3.72
2023-04-23T03:53:47.624Z,5.60
2023-04-23T03:56:29.512Z,5.00
2023-04-23T03:59:15.542Z,4.85
2023-04-23T04:01:44.161Z,10.95
2023-04-23T04:04:11.742Z,41.53
2023-04-23T04:06:38.919Z,4.78
2023-04-23T04:09:08.155Z,5.93
2023-04-23T04:11:35.664Z,3.97
2023-04-23T04:14:03.020Z,8.88
2023-04-23T04:16:30.017Z,2.78
2023-04-23T04:18:57.323Z,9.63
2023-04-23T04:21:24.269Z,5.82
2023-04-23T04:23:51.445Z,8.73
2023-04-23T04:26:18.780Z,3.80
2023-04-23T04:28:46.486Z,4.13
2023-04-23T04:31:16.111Z,7.75
2023-04-23T04:33:43.631Z,4.85
2023-04-23T04:36:10.573Z,3.83
2023-04-23T04:38:38.019Z,4.13
2023-04-23T04:41:05.385Z,2.90
2023-04-23T04:43:33.029Z,5.63
2023-04-23T04:46:01.151Z,5.38
2023-04-23T04:48:28.360Z,5.90
2023-04-23T04:50:55.528Z,5.03
2023-04-23T04:53:22.730Z,6.80
2023-04-23T04:55:49.917Z,6.22
2023-04-23T04:58:17.385Z,4.93
2023-04-23T05:00:44.669Z,4.43
2023-04-23T05:03:14.277Z,4.82
2023-04-23T05:05:42.751Z,5.93
2023-04-23T05:08:09.992Z,3.00
2023-04-23T05:10:37.465Z,3.58
2023-04-23T05:13:04.698Z,4.45
2023-04-23T05:15:31.847Z,5.20
2023-04-23T05:17:59.237Z,10.05
2023-04-23T05:20:26.258Z,19.60
2023-04-23T05:22:53.553Z,11.63
2023-04-23T05:25:20.641Z,9.95
2023-04-23T05:27:47.903Z,9.52
2023-04-23T05:30:15.402Z,12.48
2023-04-23T05:32:42.763Z,8.30
2023-04-23T05:35:09.808Z,6.80
2023-04-23T05:37:37.303Z,4.80
2023-04-23T05:40:07.299Z,6.50
2023-04-23T05:42:35.993Z,4.47
2023-04-23T05:45:03.425Z,7.30
2023-04-23T05:47:31.213Z,32.72
2023-04-23T05:49:58.527Z,43.70
2023-04-23T05:52:25.889Z,26.23
2023-04-23T05:54:52.869Z,63.47
2023-04-23T05:57:20.168Z,91.78
2023-04-23T05:59:47.076Z,74.80
2023-04-23T06:02:14.345Z,29.48
2023-04-23T06:04:41.866Z,16.55
2023-04-23T06:07:09.524Z,11.40
2023-04-23T06:09:36.429Z,6.57
2023-04-23T06:12:03.847Z,14.90
2023-04-23T06:14:30.753Z,6.80
2023-04-23T06:16:57.954Z,21.75
2023-04-23T06:19:26.573Z,3.40
2023-04-23T06:21:54.108Z,4.70
2023-04-23T06:24:20.980Z,10.48
2023-04-23T06:26:48.266Z,17.73
2023-04-23T06:29:19.556Z,13.13
2023-04-23T06:32:13.160Z,7.25
2023-04-23T06:34:49.834Z,9.63
2023-04-23T06:37:28.136Z,4.93
2023-04-23T06:39:56.282Z,5.93
2023-04-23T06:42:23.944Z,6.03
2023-04-23T06:45:08.867Z,5.32
2023-04-23T06:47:36.265Z,5.82
2023-04-23T06:50:03.598Z,4.88
2023-04-23T06:52:30.984Z,5.35
2023-04-23T06:54:57.931Z,4.50
2023-04-23T06:57:25.492Z,4.82
2023-04-23T06:59:52.398Z,5.07
2023-04-23T07:02:22.575Z,4.75
2023-04-23T07:04:49.539Z,6.18
2023-04-23T07:07:17.208Z,5.15
2023-04-23T07:09:44.330Z,5.82
2023-04-23T07:12:11.663Z,4.60
2023-04-23T07:14:39.377Z,4.57
2023-04-23T07:17:07.011Z,2.63
2023-04-23T07:19:33.943Z,7.50
2023-04-23T07:22:01.596Z,7.47
2023-04-23T07:24:28.996Z,2.92
2023-04-23T07:26:56.637Z,3.65
2023-04-23T07:29:24.624Z,3.78
2023-04-23T07:31:52.498Z,5.40
2023-04-23T07:34:19.401Z,4.80
2023-04-23T07:36:46.680Z,4.82
2023-04-23T07:39:13.939Z,4.30
2023-04-23T07:41:41.187Z,4.97
2023-04-23T07:44:08.190Z,3.72
2023-04-23T07:46:35.693Z,3.63
2023-04-23T07:49:02.613Z,3.75
2023-04-23T07:51:31.923Z,3.25
2023-04-23T07:53:58.981Z,3.15
2023-04-23T07:56:26.274Z,2.65
2023-04-23T07:58:54.186Z,2.40
2023-04-23T08:01:21.876Z,2.42
2023-04-23T08:03:49.059Z,2.60
2023-04-23T08:06:18.260Z,4.40
2023-04-23T08:08:45.304Z,2.47
2023-04-23T08:11:12.642Z,2.25
2023-04-23T08:13:39.524Z,2.15
2023-04-23T08:16:07.122Z,4.72
2023-04-23T08:18:34.184Z,2.40
2023-04-23T08:21:01.691Z,3.47
2023-04-23T08:23:28.687Z,2.03
2023-04-23T08:25:55.977Z,3.60
2023-04-23T08:28:22.954Z,1.42
2023-04-23T08:30:50.372Z,1.58
2023-04-23T08:33:17.305Z,1.63
2023-04-23T08:35:44.742Z,1.95
2023-04-23T08:38:11.670Z,2.25
2023-04-23T08:40:39.666Z,1.90
2023-04-23T08:43:15.682Z,2.35
2023-04-23T08:45:46.684Z,1.65
2023-04-23T08:48:14.364Z,2.75
2023-04-23T08:50:43.499Z,1.73
2023-04-23T08:53:10.783Z,1.02
2023-04-23T08:55:38.177Z,1.33
2023-04-23T08:58:06.496Z,1.40
2023-04-23T09:00:36.637Z,1.35
2023-04-23T09:03:04.283Z,1.45
2023-04-23T09:05:31.633Z,3.15
2023-04-23T09:07:59.728Z,1.77
2023-04-23T09:10:27.220Z,1.25
2023-04-23T09:12:54.184Z,1.15
2023-04-23T09:15:22.430Z,1.35
2023-04-23T09:17:50.205Z,2.17
2023-04-23T09:20:17.805Z,1.42
2023-04-23T09:22:49.108Z,1.70
2023-04-23T09:25:18.529Z,1.20
2023-04-23T09:27:46.686Z,1.77
2023-04-23T09:30:14.937Z,1.85
2023-04-23T09:32:43.333Z,2.28
2023-04-23T09:35:15.718Z,1.20
2023-04-23T09:37:45.100Z,0.80
2023-04-23T09:40:13.941Z,1.92
2023-04-23T09:42:41.098Z,1.25
2023-04-23T09:45:11.413Z,1.65
2023-04-23T09:47:39.621Z,0.80
2023-04-23T09:50:10.438Z,0.95
2023-04-23T09:52:41.624Z,2.30
2023-04-23T09:55:09.492Z,1.08
2023-04-23T09:57:41.303Z,1.05
2023-04-23T10:00:20.584Z,1.20
2023-04-23T10:02:49.780Z,1.83
2023-04-23T10:05:23.598Z,1.25
2023-04-23T10:07:52.919Z,1.10
2023-04-23T10:10:20.635Z,1.05
2023-04-23T10:12:54.806Z,1.27
2023-04-23T10:15:27.226Z,1.40
2023-04-23T10:17:55.717Z,1.42
2023-04-23T10:20:24.431Z,1.00
2023-04-23T10:22:54.046Z,1.90
2023-04-23T10:25:21.429Z,1.58
2023-04-23T10:27:54.248Z,1.42
2023-04-23T10:30:23.012Z,1.30
2023-04-23T10:32:50.811Z,1.80
2023-04-23T10:35:18.261Z,1.40
2023-04-23T10:37:48.087Z,1.77
2023-04-23T10:40:19.395Z,1.40
2023-04-23T10:42:46.655Z,1.42
2023-04-23T10:45:23.324Z,1.58
2023-04-23T10:47:55.023Z,1.65
2023-04-23T10:50:22.982Z,1.15
2023-04-23T10:52:54.314Z,1.40
2023-04-23T10:55:26.594Z,1.77
2023-04-23T10:58:07.500Z,0.75
2023-04-23T11:00:44.155Z,1.70
2023-04-23T11:03:43.508Z,1.50
2023-04-23T11:06:19.414Z,1.38
2023-04-23T11:08:56.741Z,1.02
2023-04-23T11:11:40.459Z,2.05
2023-04-23T11:14:16.537Z,2.53
2023-04-23T11:16:43.937Z,1.30
2023-04-23T11:19:17.305Z,4.18
2023-04-23T11:22:24.565Z,1.48
2023-04-23T11:24:51.522Z,1.77
2023-04-23T11:27:19.885Z,2.75
2023-04-23T11:29:47.928Z,2.72
2023-04-23T11:32:17.393Z,1.90
2023-04-23T11:34:49.814Z,2.15
2023-04-23T11:37:18.411Z,2.13
2023-04-23T11:39:47.630Z,1.38
2023-04-23T11:42:16.052Z,1.58
2023-04-23T11:44:45.498Z,1.38
2023-04-23T11:47:14.531Z,1.20
2023-04-23T11:49:43.315Z,2.72
2023-04-23T11:52:12.192Z,3.60
2023-04-23T11:54:42.363Z,1.85
2023-04-23T11:57:10.423Z,2.40
2023-04-23T11:59:37.723Z,2.08
2023-04-23T12:02:05.082Z,2.55
2023-04-23T12:04:33.099Z,1.45
2023-04-23T12:07:00.812Z,1.73
2023-04-23T12:09:29.521Z,2.22
2023-04-23T12:11:58.490Z,1.27
2023-04-23T12:14:30.730Z,1.92
2023-04-23T12:16:58.997Z,1.52
2023-04-23T12:19:31.194Z,2.40
2023-04-23T12:21:58.411Z,1.45
2023-04-23T12:24:27.701Z,2.53
2023-04-23T12:26:58.456Z,1.98
2023-04-23T12:29:25.785Z,2.40
2023-04-23T12:31:53.975Z,1.33
2023-04-23T12:34:21.513Z,2.38
2023-04-23T12:36:51.860Z,1.65
2023-04-23T12:39:36.791Z,1.83
2023-04-23T12:42:06.583Z,1.73
2023-04-23T12:44:38.065Z,1.83
2023-04-23T12:47:11.036Z,2.35
2023-04-23T12:49:40.237Z,1.20
2023-04-23T12:52:08.874Z,1.40
2023-04-23T12:54:38.491Z,2.33
2023-04-23T12:57:08.528Z,1.50
2023-04-23T12:59:35.629Z,2.05
2023-04-23T13:02:03.941Z,1.20
2023-04-23T13:04:32.861Z,1.58
2023-04-23T13:07:00.274Z,2.83
2023-04-23T13:09:28.500Z,1.73
2023-04-23T13:11:55.925Z,1.23
2023-04-23T13:14:22.946Z,1.42
2023-04-23T13:16:50.452Z,1.75
2023-04-23T13:19:17.780Z,3.53
2023-04-23T13:21:45.560Z,1.55
2023-04-23T13:24:12.517Z,1.50
2023-04-23T13:26:39.922Z,2.33
2023-04-23T13:29:06.775Z,2.35
2023-04-23T13:31:34.330Z,1.35
2023-04-23T13:34:03.044Z,1.77
2023-04-23T13:36:30.918Z,2.60
2023-04-23T13:38:57.987Z,2.70
2023-04-23T13:41:25.363Z,2.60
2023-04-23T13:43:52.786Z,1.35
2023-04-23T13:46:20.482Z,2.15
2023-04-23T13:48:47.542Z,1.63
2023-04-23T13:51:33.231Z,3.75
2023-04-23T13:54:01.646Z,1.95
2023-04-23T13:56:30.543Z,1.90
2023-04-23T13:59:18.316Z,2.00
2023-04-23T14:01:50.544Z,1.75
2023-04-23T14:04:18.422Z,2.00
2023-04-23T14:06:45.862Z,2.55
2023-04-23T14:09:12.818Z,2.35
2023-04-23T14:11:41.719Z,1.75
2023-04-23T14:14:08.896Z,1.40
2023-04-23T14:16:36.316Z,2.40
2023-04-23T14:19:03.319Z,3.00
2023-04-23T14:21:30.590Z,2.95
2023-04-23T14:24:15.011Z,2.03
2023-04-23T14:26:49.476Z,2.05
2023-04-23T14:29:24.513Z,2.50
2023-04-23T14:31:52.325Z,1.60
2023-04-23T14:34:19.269Z,2.63
2023-04-23T14:36:49.171Z,2.40
2023-04-23T14:39:17.039Z,1.58
2023-04-23T14:41:44.836Z,1.85
2023-04-23T14:44:12.179Z,1.75
2023-04-23T14:46:39.450Z,4.40
2023-04-23T14:49:06.608Z,2.13
2023-04-23T14:51:33.869Z,2.33
2023-04-23T14:54:00.884Z,2.47
2023-04-23T14:56:28.203Z,1.92
2023-04-23T14:58:55.143Z,2.05
2023-04-23T15:01:22.575Z,2.05
2023-04-23T15:03:49.787Z,2.10
2023-04-23T15:06:17.260Z,4.10
2023-04-23T15:08:44.169Z,2.13
2023-04-23T15:11:13.586Z,2.70
2023-04-23T15:14:15.712Z,2.00
2023-04-23T15:16:48.819Z,1.88
2023-04-23T15:19:18.211Z,2.80
2023-04-23T15:21:46.566Z,2.83
2023-04-23T15:24:14.157Z,2.47
2023-04-23T15:26:41.648Z,2.05
2023-04-23T15:29:09.836Z,1.98
2023-04-23T15:31:38.452Z,2.00
2023-04-23T15:34:08.651Z,2.53
2023-04-23T15:36:37.557Z,1.77
2023-04-23T15:39:05.925Z,1.35
2023-04-23T15:41:33.143Z,1.75
2023-04-23T15:44:00.383Z,2.95
2023-04-23T15:46:27.716Z,1.58
2023-04-23T15:48:54.667Z,1.73
2023-04-23T15:51:21.960Z,2.05
2023-04-23T15:53:48.898Z,1.70
2023-04-23T15:56:16.180Z,3.45
2023-04-23T15:58:43.061Z,1.50
2023-04-23T16:01:11.402Z,1.85
2023-04-23T16:03:38.563Z,2.00
2023-04-23T16:06:06.007Z,2.20
2023-04-23T16:08:32.925Z,1.80
2023-04-23T16:11:00.150Z,2.50
2023-04-23T16:13:28.987Z,1.63
2023-04-23T16:15:56.319Z,2.22
2023-04-23T16:18:23.260Z,2.15
2023-04-23T16:20:50.439Z,2.38
2023-04-23T16:23:17.487Z,2.13
2023-04-23T16:25:44.823Z,2.67
2023-04-23T16:28:13.820Z,2.08
2023-04-23T16:30:41.180Z,2.08
2023-04-23T16:33:09.576Z,1.73
2023-04-23T16:35:37.245Z,2.22
2023-04-23T16:38:04.095Z,2.00
2023-04-23T16:40:31.526Z,2.45
2023-04-23T16:42:58.553Z,2.03
2023-04-23T16:45:26.109Z,1.95
2023-04-23T16:47:53.063Z,1.33
2023-04-23T16:50:20.375Z,1.70
2023-04-23T16:52:47.293Z,1.77
2023-04-23T16:55:14.697Z,2.72
2023-04-23T16:57:41.684Z,2.70
2023-04-23T17:00:10.049Z,2.55
2023-04-23T17:02:38.071Z,4.90
2023-04-23T17:05:06.356Z,2.22
2023-04-23T17:07:33.466Z,1.90
2023-04-23T17:10:00.868Z,3.75
2023-04-23T17:12:28.011Z,24.42
2023-04-23T17:14:55.351Z,2.88
2023-04-23T17:17:23.137Z,2.15
2023-04-23T17:19:51.121Z,1.88
2023-04-23T17:22:18.011Z,2.00
2023-04-23T17:24:45.497Z,3.83
2023-04-23T17:27:12.358Z,1.30
2023-04-23T17:29:39.880Z,7.28
2023-04-23T17:32:06.922Z,1.65
2023-04-23T17:34:34.394Z,2.40
2023-04-23T17:37:01.440Z,199.60
2023-04-23T17:39:28.664Z,300.05
2023-04-23T17:41:57.574Z,201.98
2023-04-23T17:44:24.849Z,333.15
2023-04-23T17:46:55.262Z,193.98
2023-04-23T17:49:22.851Z,228.50
2023-04-23T17:51:49.826Z,204.60
2023-04-23T17:54:17.807Z,315.35
2023-04-23T17:56:44.958Z,425.70
2023-04-23T17:59:12.294Z,348.52
2023-04-23T18:01:39.492Z,230.27
2023-04-23T18:04:07.073Z,225.15
2023-04-23T18:06:35.744Z,288.20
2023-04-23T18:09:03.569Z,431.48
2023-04-23T18:11:30.605Z,239.13
2023-04-23T18:13:57.961Z,75.60
2023-04-23T18:16:24.928Z,25.00
2023-04-23T18:18:52.453Z,10.95
2023-04-23T18:21:19.711Z,7.78
2023-04-23T18:23:47.593Z,20.52
2023-04-23T18:26:14.616Z,37.35
2023-04-23T18:28:42.414Z,93.43
2023-04-23T18:31:09.776Z,249.20
2023-04-23T18:33:43.640Z,216.45
2023-04-23T18:36:24.637Z,123.55
2023-04-23T18:38:51.965Z,40.30
2023-04-23T18:41:18.946Z,28.45
2023-04-23T18:43:46.348Z,9.80
2023-04-23T18:46:13.477Z,6.13
2023-04-23T18:48:53.219Z,37.85
2023-04-23T18:51:44.150Z,70.38
2023-04-23T18:54:15.034Z,85.38
2023-04-23T18:56:42.086Z,48.35
2023-04-23T18:59:09.915Z,31.35
2023-04-23T19:01:37.177Z,35.25
2023-04-23T19:04:04.537Z,15.10
2023-04-23T19:06:32.417Z,9.90
2023-04-23T19:08:59.716Z,24.08
2023-04-23T19:11:30.006Z,40.30
2023-04-23T19:13:57.313Z,54.95
2023-04-23T19:16:24.356Z,66.10
2023-04-23T19:18:51.663Z,66.53
2023-04-23T19:21:18.791Z,68.93
2023-04-23T19:23:46.248Z,99.47
2023-04-23T19:26:13.531Z,110.85
2023-04-23T19:28:40.786Z,76.43
2023-04-23T19:31:08.007Z,60.90
2023-04-23T19:33:35.469Z,37.72
2023-04-23T19:36:02.354Z,44.60
2023-04-23T19:38:29.617Z,47.00
2023-04-23T19:40:57.053Z,26.65
2023-04-23T19:43:24.256Z,22.10
2023-04-23T19:45:51.910Z,19.88
2023-04-23T19:48:19.231Z,25.65
2023-04-23T19:50:47.917Z,14.63
2023-04-23T19:53:15.232Z,7.22
2023-04-23T19:55:42.205Z,4.68
2023-04-23T19:58:09.428Z,2.70
2023-04-23T20:00:38.884Z,1.70
2023-04-23T20:03:09.252Z,2.10
2023-04-23T20:05:37.413Z,1.98
2023-04-23T20:08:11.301Z,1.42
2023-04-23T20:10:38.261Z,1.58
2023-04-23T20:13:05.520Z,3.92
2023-04-23T20:15:32.716Z,1.70
2023-04-23T20:18:00.673Z,2.20
2023-04-23T20:20:27.676Z,1.65
2023-04-23T20:22:55.082Z,3.75
2023-04-23T20:25:25.513Z,3.95
2023-04-23T20:27:53.489Z,6.03
2023-04-23T20:30:20.693Z,7.38
2023-04-23T20:32:47.953Z,5.47
2023-04-23T20:35:15.045Z,7.43
2023-04-23T20:37:42.852Z,8.75
2023-04-23T20:40:14.463Z,20.13
2023-04-23T20:42:42.415Z,19.35
2023-04-23T20:45:10.825Z,10.90
2023-04-23T20:47:38.145Z,27.90
2023-04-23T20:50:05.453Z,22.88
2023-04-23T20:52:33.543Z,26.10
2023-04-23T20:55:00.458Z,27.05
2023-04-23T20:57:27.721Z,35.08
2023-04-23T20:59:54.620Z,25.77
2023-04-23T21:02:22.151Z,35.88
2023-04-23T21:04:49.262Z,38.85
2023-04-23T21:07:38.127Z,64.25
2023-04-23T21:10:05.739Z,45.75
2023-04-23T21:12:33.146Z,62.95
2023-04-23T21:15:00.121Z,82.50
2023-04-23T21:17:27.750Z,34.97
2023-04-23T21:19:54.725Z,64.63
2023-04-23T21:22:22.095Z,72.05
2023-04-23T21:24:48.989Z,34.20
2023-04-23T21:27:21.451Z,24.02
2023-04-23T21:29:48.958Z,37.35
2023-04-23T21:32:16.527Z,19.60
2023-04-23T21:34:43.555Z,19.48
2023-04-23T21:37:10.923Z,24.13
2023-04-23T21:39:37.927Z,25.05
2023-04-23T21:42:05.370Z,11.32
2023-04-23T21:44:32.895Z,7.78
2023-04-23T21:47:00.276Z,14.18
2023-04-23T21:49:27.846Z,7.80
2023-04-23T21:51:56.070Z,5.43
2023-04-23T21:54:23.076Z,7.60
2023-04-23T21:56:50.341Z,8.00
2023-04-23T21:59:19.023Z,20.23
2023-04-23T22:01:46.266Z,29.90
2023-04-23T22:04:13.497Z,42.47
2023-04-23T22:06:41.080Z,48.70
2023-04-23T22:09:08.415Z,66.13
2023-04-23T22:11:35.787Z,52.35
2023-04-23T22:14:02.710Z,46.60
2023-04-23T22:16:30.313Z,50.42
2023-04-23T22:18:57.653Z,43.50
2023-04-23T22:21:24.966Z,101.60
2023-04-23T22:23:52.005Z,86.85
2023-04-23T22:26:19.550Z,95.13
2023-04-23T22:28:46.604Z,77.60
2023-04-23T22:31:13.939Z,126.03
2023-04-23T22:33:40.857Z,118.47
2023-04-23T22:36:08.270Z,83.05
2023-04-23T22:38:35.228Z,50.45
2023-04-23T22:41:02.515Z,34.45
2023-04-23T22:43:29.476Z,33.72
2023-04-23T22:45:57.081Z,12.13
2023-04-23T22:48:24.166Z,8.80
2023-04-23T22:50:51.825Z,9.43
2023-04-23T22:53:19.693Z,6.20
2023-04-23T22:55:47.290Z,11.00
2023-04-23T22:58:14.390Z,45.70
2023-04-23T23:00:42.010Z,36.42
2023-04-23T23:03:09.461Z,45.40
2023-04-23T23:05:36.872Z,37.08
2023-04-23T23:08:03.902Z,21.73
2023-04-23T23:10:31.742Z,11.85
2023-04-23T23:12:58.797Z,6.25
2023-04-23T23:15:26.125Z,7.50
2023-04-23T23:17:53.946Z,5.40
2023-04-23T23:20:21.425Z,4.65
2023-04-23T23:22:48.618Z,5.35
2023-04-23T23:25:16.262Z,11.10
2023-04-23T23:27:43.281Z,24.52
2023-04-23T23:30:10.809Z,39.47
2023-04-23T23:32:37.928Z,13.48
2023-04-23T23:35:06.566Z,10.15
2023-04-23T23:37:33.680Z,6.70
2023-04-23T23:40:00.904Z,3.05
2023-04-23T23:42:27.987Z,3.38
2023-04-23T23:44:55.140Z,2.15
2023-04-23T23:47:22.381Z,3.15
2023-04-23T23:49:50.091Z,3.55
2023-04-23T23:52:17.121Z,5.30
2023-04-23T23:54:44.392Z,14.32
2023-04-23T23:57:11.462Z,31.38
2023-04-23T23:59:38.721Z,26.80
